createdAt,value
2017-12-04T00:02:33.896Z,96348
2017-12-04T00:08:02.035Z,96342
2017-12-04T00:13:30.953Z,96347
2017-12-04T00:18:59.110Z,96358
2017-12-04T00:24:28.236Z,96343
2017-12-04T00:29:59.124Z,96356
2017-12-04T00:35:28.023Z,96347
2017-12-04T00:40:56.482Z,96364
2017-12-04T00:46:25.410Z,96359
2017-12-04T00:51:53.548Z,96360
2017-12-04T00:57:22.440Z,96361
2017-12-04T01:02:50.820Z,96367
2017-12-04T01:08:18.958Z,96367
2017-12-04T01:13:47.098Z,96362
2017-12-04T01:19:15.243Z,96388
2017-12-04T01:24:43.394Z,96384
2017-12-04T01:30:11.535Z,96388
2017-12-04T01:35:39.666Z,96395
2017-12-04T01:41:08.116Z,96391
2017-12-04T01:46:36.534Z,96389
2017-12-04T01:52:07.369Z,96393
2017-12-04T01:57:35.512Z,96403
2017-12-04T02:03:04.423Z,96387
2017-12-04T02:08:32.579Z,96399
2017-12-04T02:14:00.744Z,96389
2017-12-04T02:19:32.949Z,96396
2017-12-04T02:25:01.358Z,96391
2017-12-04T02:30:29.508Z,96390
2017-12-04T02:35:58.457Z,96394
2017-12-04T02:41:26.630Z,96401
2017-12-04T02:46:54.789Z,96391
2017-12-04T02:52:22.966Z,96406
2017-12-04T02:57:51.101Z,96398
2017-12-04T03:03:19.516Z,96402
2017-12-04T03:08:47.648Z,96411
2017-12-04T03:14:24.446Z,96420
2017-12-04T03:19:52.617Z,96413
2017-12-04T03:25:21.544Z,96408
2017-12-04T03:30:50.450Z,96408
2017-12-04T03:36:19.528Z,96409
2017-12-04T03:41:48.471Z,96400
2017-12-04T03:47:17.405Z,96412
2017-12-04T03:52:46.300Z,96410
2017-12-04T03:58:14.501Z,96400
2017-12-04T04:03:42.668Z,96402
2017-12-04T04:09:10.797Z,96408
2017-12-04T04:14:39.705Z,96412
2017-12-04T04:20:07.865Z,96413
2017-12-04T04:25:37.936Z,96436
2017-12-04T04:31:06.094Z,96433
2017-12-04T04:36:34.238Z,96429
2017-12-04T04:42:21.562Z,96422
2017-12-04T04:47:50.021Z,96430
2017-12-04T04:53:18.174Z,96434
2017-12-04T04:58:46.319Z,96425
2017-12-04T05:04:14.475Z,96426
2017-12-04T05:09:46.024Z,96429
2017-12-04T05:15:14.949Z,96440
2017-12-04T05:20:43.855Z,96448
2017-12-04T05:26:12.322Z,96459
2017-12-04T05:31:47.013Z,96450
2017-12-04T05:37:20.140Z,96463
2017-12-04T05:42:49.050Z,96461
2017-12-04T05:48:19.170Z,96467
2017-12-04T05:53:47.321Z,96471
2017-12-04T05:59:15.477Z,96467
2017-12-04T06:04:43.627Z,96464
2017-12-04T06:10:13.526Z,96463
2017-12-04T06:15:41.691Z,96467
2017-12-04T06:21:09.972Z,96479
2017-12-04T06:26:40.883Z,96483
2017-12-04T06:32:09.024Z,96494
2017-12-04T06:37:38.915Z,96508
2017-12-04T06:43:07.061Z,96507
2017-12-04T06:48:35.220Z,96519
2017-12-04T06:54:03.390Z,96523
2017-12-04T06:59:31.531Z,96528
2017-12-04T07:05:00.344Z,96539
2017-12-04T07:10:28.521Z,96540
2017-12-04T07:15:57.432Z,96541
2017-12-04T07:21:25.880Z,96544
2017-12-04T07:26:54.032Z,96557
2017-12-04T07:32:22.172Z,96558
2017-12-04T07:37:50.319Z,96562
2017-12-04T07:43:19.200Z,96575
2017-12-04T07:48:47.356Z,96582
2017-12-04T07:54:20.028Z,96608
2017-12-04T07:59:48.171Z,96606
2017-12-04T08:05:16.324Z,96611
2017-12-04T08:10:44.540Z,96590
2017-12-04T08:16:13.416Z,96594
2017-12-04T08:21:42.482Z,96608
2017-12-04T08:27:10.712Z,96619
2017-12-04T08:32:39.198Z,96623
2017-12-04T08:38:07.342Z,96613
2017-12-04T08:43:36.600Z,96603
2017-12-04T08:49:04.734Z,96615
2017-12-04T08:54:32.931Z,96621
2017-12-04T09:00:07.684Z,96619
2017-12-04T09:05:46.528Z,96622
2017-12-04T09:11:14.674Z,96626
2017-12-04T09:16:42.804Z,96628
2017-12-04T09:22:11.724Z,96627
2017-12-04T09:27:39.876Z,96622
2017-12-04T09:33:08.010Z,96642
2017-12-04T09:38:36.165Z,96646
2017-12-04T09:44:04.313Z,96637
2017-12-04T09:49:33.342Z,96639
2017-12-04T09:55:03.489Z,96649
2017-12-04T10:00:31.783Z,96642
2017-12-04T10:05:59.935Z,96642
2017-12-04T10:11:28.072Z,96644
2017-12-04T10:17:01.228Z,96641
2017-12-04T10:22:31.577Z,96638
2017-12-04T10:27:59.768Z,96631
2017-12-04T10:33:27.959Z,96604
2017-12-04T10:38:56.384Z,96622
2017-12-04T10:44:24.521Z,96616
2017-12-04T10:49:52.650Z,96620
2017-12-04T10:55:20.909Z,96610
2017-12-04T11:00:49.828Z,96615
2017-12-04T11:06:19.418Z,96619
2017-12-04T11:11:49.003Z,96633
2017-12-04T11:17:17.148Z,96625
2017-12-04T11:22:45.361Z,96627
2017-12-04T11:28:13.565Z,96639
2017-12-04T11:33:41.758Z,96638
2017-12-04T11:39:11.315Z,96636
2017-12-04T11:44:40.131Z,96639
2017-12-04T11:50:08.280Z,96638
2017-12-04T11:56:04.596Z,96630
2017-12-04T12:01:32.742Z,96621
2017-12-04T12:07:00.900Z,96627
2017-12-04T12:12:29.083Z,96633
2017-12-04T12:17:57.292Z,96626
2017-12-04T12:23:25.803Z,96621
2017-12-04T12:28:54.003Z,96634
2017-12-04T12:34:22.142Z,96619
2017-12-04T12:39:50.973Z,96626
2017-12-04T12:45:19.115Z,96612
2017-12-04T12:50:48.029Z,96611
2017-12-04T12:56:16.191Z,96606
2017-12-04T13:01:44.763Z,96597
2017-12-04T13:07:13.391Z,96606
2017-12-04T13:12:42.237Z,96617
2017-12-04T13:18:11.564Z,96622
2017-12-04T13:23:39.711Z,96624
2017-12-04T13:29:07.857Z,96628
2017-12-04T13:34:53.925Z,96631
2017-12-04T13:40:22.804Z,96616
2017-12-04T13:45:51.364Z,96626
2017-12-04T13:51:32.683Z,96637
2017-12-04T13:57:01.694Z,96632
2017-12-04T14:02:29.841Z,96635
2017-12-04T14:07:57.977Z,96650
2017-12-04T14:13:26.117Z,96641
2017-12-04T14:18:55.110Z,96651
2017-12-04T14:24:24.454Z,96662
2017-12-04T14:29:52.595Z,96664
2017-12-04T14:35:20.736Z,96651
2017-12-04T14:40:48.866Z,96659
2017-12-04T14:46:17.793Z,96671
2017-12-04T14:51:46.704Z,96674
2017-12-04T14:57:14.848Z,96676
2017-12-04T15:02:42.985Z,96686
2017-12-04T15:08:11.894Z,96683
2017-12-04T15:13:40.038Z,96677
2017-12-04T15:19:08.921Z,96701
2017-12-04T15:24:37.068Z,96691
2017-12-04T15:30:05.209Z,96696
2017-12-04T15:35:34.110Z,96695
2017-12-04T15:41:02.252Z,96693
2017-12-04T15:46:30.454Z,96697
2017-12-04T15:51:58.591Z,96695
2017-12-04T15:57:26.908Z,96701
2017-12-04T16:02:55.861Z,96681
2017-12-04T16:08:24.826Z,96679
2017-12-04T16:13:52.969Z,96684
2017-12-04T16:19:21.119Z,96689
2017-12-04T16:24:49.266Z,96706
2017-12-04T16:30:18.225Z,96724
2017-12-04T16:35:46.370Z,96724
2017-12-04T16:41:14.521Z,96722
2017-12-04T16:46:44.587Z,96718
2017-12-04T16:52:12.768Z,96729
2017-12-04T16:57:40.907Z,96745
2017-12-04T17:03:09.031Z,96752
2017-12-04T17:08:37.161Z,96749
2017-12-04T17:14:05.322Z,96756
2017-12-04T17:19:37.021Z,96765
2017-12-04T17:25:05.165Z,96788
2017-12-04T17:30:34.252Z,96803
2017-12-04T17:36:04.330Z,96785
2017-12-04T17:41:35.203Z,96799
2017-12-04T17:47:06.823Z,96794
2017-12-04T17:52:36.008Z,96792
2017-12-04T17:58:04.178Z,96794
2017-12-04T18:03:33.103Z,96806
2017-12-04T18:09:02.040Z,96793
2017-12-04T18:14:31.211Z,96813
2017-12-04T18:19:59.664Z,96817
2017-12-04T18:25:31.443Z,96822
2017-12-04T18:31:05.204Z,96813
2017-12-04T18:36:35.002Z,96832
2017-12-04T18:42:03.144Z,96835
2017-12-04T18:47:41.184Z,96842
2017-12-04T18:53:09.452Z,96831
2017-12-04T18:58:37.614Z,96857
2017-12-04T19:04:25.667Z,96855
2017-12-04T19:09:53.842Z,96839
2017-12-04T19:15:27.441Z,96840
2017-12-04T19:20:55.826Z,96851
2017-12-04T19:26:26.757Z,96844
2017-12-04T19:31:54.936Z,96852
2017-12-04T19:37:25.132Z,96853
2017-12-04T19:42:53.279Z,96860
2017-12-04T19:48:22.397Z,96866
2017-12-04T19:53:50.564Z,96874
2017-12-04T19:59:18.823Z,96875
2017-12-04T20:04:47.729Z,96895
2017-12-04T20:10:17.841Z,96892
2017-12-04T20:15:45.976Z,96892
2017-12-04T20:21:18.152Z,96895
2017-12-04T20:26:47.064Z,96899
2017-12-04T20:32:15.207Z,96906
2017-12-04T20:37:43.426Z,96906
2017-12-04T20:43:12.466Z,96908
2017-12-04T20:48:41.595Z,96908
2017-12-04T20:54:10.527Z,96914
2017-12-04T20:59:38.646Z,96916
2017-12-04T21:05:06.778Z,96930
2017-12-04T21:10:56.742Z,96923
2017-12-04T21:16:57.765Z,96936
2017-12-04T21:22:25.925Z,96938
2017-12-04T21:27:59.882Z,96953
2017-12-04T21:33:28.910Z,96954
2017-12-04T21:39:02.772Z,96961
2017-12-04T21:44:46.111Z,96971
2017-12-04T21:50:16.209Z,96971
2017-12-04T21:55:44.506Z,96979
2017-12-04T22:01:12.679Z,96978
2017-12-04T22:06:40.861Z,96990
2017-12-04T22:12:13.508Z,96988
2017-12-04T22:17:42.427Z,97015
2017-12-04T22:23:10.613Z,97012
2017-12-04T22:28:40.018Z,97010
2017-12-04T22:34:08.209Z,97016
2017-12-04T22:39:36.350Z,97017
2017-12-04T22:45:05.307Z,97032
2017-12-04T22:50:35.487Z,97029
2017-12-04T22:56:03.635Z,97056
2017-12-04T23:01:31.852Z,97060
2017-12-04T23:06:59.985Z,97055
2017-12-04T23:12:28.182Z,97051
2017-12-04T23:17:56.328Z,97057
2017-12-04T23:23:24.686Z,97066
2017-12-04T23:28:56.419Z,97072
2017-12-04T23:34:24.583Z,97070
2017-12-04T23:39:53.831Z,97071
2017-12-04T23:45:21.996Z,97074
2017-12-04T23:50:50.151Z,97077
2017-12-04T23:56:19.226Z,97094
